sensor_id;sensor_type;location;lat;lon;timestamp;P1;durP1;ratioP1;P2;durP2;ratioP2
61338;SDS011;47213;52.362;4.606;2023-05-16T00:06:22;10.70;;;2.80;;
61338;SDS011;47213;52.362;4.606;2023-05-16T00:16:21;14.10;;;2.80;;
61338;SDS011;47213;52.362;4.606;2023-05-16T00:21:21;14.10;;;2.80;;
61338;SDS011;47213;52.362;4.606;2023-05-16T00:26:21;13.10;;;2.70;;
61338;SDS011;47213;52.362;4.606;2023-05-16T00:31:21;13.10;;;2.70;;
61338;SDS011;47213;52.362;4.606;2023-05-16T00:41:21;11.50;;;2.60;;
61338;SDS011;47213;52.362;4.606;2023-05-16T00:46:21;12.70;;;2.50;;
61338;SDS011;47213;52.362;4.606;2023-05-16T01:01:24;12.70;;;2.40;;
61338;SDS011;47213;52.362;4.606;2023-05-16T01:11:26;10.50;;;2.40;;
61338;SDS011;47213;52.362;4.606;2023-05-16T01:16:27;11.50;;;2.50;;
61338;SDS011;47213;52.362;4.606;2023-05-16T01:21:31;11.50;;;2.50;;
61338;SDS011;47213;52.362;4.606;2023-05-16T01:26:25;10.00;;;2.30;;
61338;SDS011;47213;52.362;4.606;2023-05-16T01:56:22;11.40;;;2.50;;
61338;SDS011;47213;52.362;4.606;2023-05-16T02:01:21;11.40;;;2.50;;
61338;SDS011;47213;52.362;4.606;2023-05-16T02:06:22;11.60;;;2.70;;
61338;SDS011;47213;52.362;4.606;2023-05-16T02:11:21;11.60;;;2.70;;
61338;SDS011;47213;52.362;4.606;2023-05-16T02:21:21;14.50;;;2.40;;
61338;SDS011;47213;52.362;4.606;2023-05-16T02:26:21;15.30;;;2.70;;
61338;SDS011;47213;52.362;4.606;2023-05-16T02:36:21;11.70;;;2.40;;
61338;SDS011;47213;52.362;4.606;2023-05-16T03:11:21;11.50;;;2.40;;
61338;SDS011;47213;52.362;4.606;2023-05-16T03:16:21;11.40;;;2.60;;
61338;SDS011;47213;52.362;4.606;2023-05-16T03:31:21;9.10;;;2.40;;
61338;SDS011;47213;52.362;4.606;2023-05-16T03:36:22;10.90;;;2.30;;
61338;SDS011;47213;52.362;4.606;2023-05-16T03:41:21;10.90;;;2.30;;
61338;SDS011;47213;52.362;4.606;2023-05-16T03:46:21;8.60;;;2.00;;
61338;SDS011;47213;52.362;4.606;2023-05-16T04:01:21;11.50;;;2.00;;
61338;SDS011;47213;52.362;4.606;2023-05-16T04:31:21;8.60;;;2.10;;
61338;SDS011;47213;52.362;4.606;2023-05-16T04:41:22;8.90;;;2.20;;
61338;SDS011;47213;52.362;4.606;2023-05-16T04:46:22;9.00;;;1.80;;
61338;SDS011;47213;52.362;4.606;2023-05-16T04:51:22;9.00;;;1.80;;
61338;SDS011;47213;52.362;4.606;2023-05-16T05:11:22;8.10;;;2.10;;
61338;SDS011;47213;52.362;4.606;2023-05-16T05:31:22;11.60;;;2.20;;
61338;SDS011;47213;52.362;4.606;2023-05-16T05:41:22;8.10;;;1.90;;
61338;SDS011;47213;52.362;4.606;2023-05-16T05:46:23;7.90;;;1.80;;
61338;SDS011;47213;52.362;4.606;2023-05-16T05:51:22;7.90;;;1.80;;
61338;SDS011;47213;52.362;4.606;2023-05-16T05:56:22;8.90;;;2.20;;
61338;SDS011;47213;52.362;4.606;2023-05-16T06:01:22;8.90;;;2.20;;
61338;SDS011;47213;52.362;4.606;2023-05-16T06:11:22;8.50;;;2.20;;
61338;SDS011;47213;52.362;4.606;2023-05-16T06:26:22;7.90;;;1.90;;
61338;SDS011;47213;52.362;4.606;2023-05-16T06:31:22;7.90;;;1.90;;
61338;SDS011;47213;52.362;4.606;2023-05-16T06:36:22;7.70;;;1.90;;
61338;SDS011;47213;52.362;4.606;2023-05-16T06:41:22;7.70;;;1.90;;
61338;SDS011;47213;52.362;4.606;2023-05-16T06:51:22;8.90;;;2.10;;
61338;SDS011;47213;52.362;4.606;2023-05-16T07:01:22;8.60;;;2.00;;
61338;SDS011;47213;52.362;4.606;2023-05-16T07:06:22;8.70;;;1.80;;
61338;SDS011;47213;52.362;4.606;2023-05-16T07:11:22;8.70;;;1.80;;
61338;SDS011;47213;52.362;4.606;2023-05-16T07:16:22;8.80;;;1.80;;
61338;SDS011;47213;52.362;4.606;2023-05-16T07:21:22;8.80;;;1.80;;
61338;SDS011;47213;52.362;4.606;2023-05-16T07:26:22;7.20;;;1.60;;
61338;SDS011;47213;52.362;4.606;2023-05-16T07:31:22;7.20;;;1.60;;
61338;SDS011;47213;52.362;4.606;2023-05-16T07:36:22;8.00;;;2.10;;
61338;SDS011;47213;52.362;4.606;2023-05-16T07:41:22;8.00;;;2.10;;
61338;SDS011;47213;52.362;4.606;2023-05-16T07:46:22;9.90;;;1.90;;
61338;SDS011;47213;52.362;4.606;2023-05-16T07:51:22;9.90;;;1.90;;
61338;SDS011;47213;52.362;4.606;2023-05-16T07:56:22;7.60;;;1.70;;
61338;SDS011;47213;52.362;4.606;2023-05-16T08:01:22;7.60;;;1.70;;
61338;SDS011;47213;52.362;4.606;2023-05-16T08:06:22;7.50;;;1.60;;
61338;SDS011;47213;52.362;4.606;2023-05-16T08:11:22;7.50;;;1.60;;
61338;SDS011;47213;52.362;4.606;2023-05-16T08:16:22;10.00;;;1.80;;
61338;SDS011;47213;52.362;4.606;2023-05-16T08:21:22;10.00;;;1.80;;
61338;SDS011;47213;52.362;4.606;2023-05-16T08:31:22;9.70;;;1.90;;
61338;SDS011;47213;52.362;4.606;2023-05-16T08:41:22;7.70;;;1.70;;
61338;SDS011;47213;52.362;4.606;2023-05-16T08:46:22;7.30;;;1.50;;
61338;SDS011;47213;52.362;4.606;2023-05-16T08:51:22;7.30;;;1.50;;
61338;SDS011;47213;52.362;4.606;2023-05-16T09:06:22;7.40;;;1.50;;
61338;SDS011;47213;52.362;4.606;2023-05-16T09:11:22;7.40;;;1.50;;
61338;SDS011;47213;52.362;4.606;2023-05-16T09:16:22;9.10;;;1.70;;
61338;SDS011;47213;52.362;4.606;2023-05-16T09:21:27;9.10;;;1.70;;
61338;SDS011;47213;52.362;4.606;2023-05-16T09:26:22;8.80;;;1.60;;
61338;SDS011;47213;52.362;4.606;2023-05-16T09:31:24;8.80;;;1.60;;
61338;SDS011;47213;52.362;4.606;2023-05-16T09:41:22;7.90;;;1.40;;
61338;SDS011;47213;52.362;4.606;2023-05-16T09:46:25;9.10;;;1.50;;
61338;SDS011;47213;52.362;4.606;2023-05-16T09:51:22;9.10;;;1.50;;
61338;SDS011;47213;52.362;4.606;2023-05-16T09:56:22;7.20;;;1.40;;
61338;SDS011;47213;52.362;4.606;2023-05-16T10:01:23;7.20;;;1.40;;
61338;SDS011;47213;52.362;4.606;2023-05-16T10:06:23;8.20;;;1.30;;
61338;SDS011;47213;52.362;4.606;2023-05-16T10:11:23;8.20;;;1.30;;
61338;SDS011;47213;52.362;4.606;2023-05-16T10:16:23;8.30;;;1.30;;
61338;SDS011;47213;52.362;4.606;2023-05-16T10:21:24;8.30;;;1.30;;
61338;SDS011;47213;52.362;4.606;2023-05-16T10:26:23;4.80;;;1.20;;
61338;SDS011;47213;52.362;4.606;2023-05-16T10:31:22;4.80;;;1.20;;
61338;SDS011;47213;52.362;4.606;2023-05-16T10:36:23;6.00;;;1.20;;
61338;SDS011;47213;52.362;4.606;2023-05-16T10:41:23;6.00;;;1.20;;
61338;SDS011;47213;52.362;4.606;2023-05-16T10:46:23;4.50;;;1.10;;
61338;SDS011;47213;52.362;4.606;2023-05-16T10:56:25;6.90;;;1.00;;
61338;SDS011;47213;52.362;4.606;2023-05-16T11:01:23;6.90;;;1.00;;
61338;SDS011;47213;52.362;4.606;2023-05-16T11:06:24;4.80;;;0.90;;
61338;SDS011;47213;52.362;4.606;2023-05-16T11:16:26;5.00;;;1.00;;
61338;SDS011;47213;52.362;4.606;2023-05-16T11:26:58;unavailable;;;unavailable;;
61338;SDS011;47213;52.362;4.606;2023-05-16T11:27:00;7.20;;;0.80;;
61338;SDS011;47213;52.362;4.606;2023-05-16T11:27:02;7.20;;;0.80;;
61338;SDS011;47213;52.362;4.606;2023-05-16T11:31:23;7.20;;;0.80;;
61338;SDS011;47213;52.362;4.606;2023-05-16T11:36:23;5.00;;;0.90;;
61338;SDS011;47213;52.362;4.606;2023-05-16T11:41:23;5.00;;;0.90;;
61338;SDS011;47213;52.362;4.606;2023-05-16T11:46:23;6.00;;;0.90;;
61338;SDS011;47213;52.362;4.606;2023-05-16T11:51:23;6.00;;;0.90;;
61338;SDS011;47213;52.362;4.606;2023-05-16T11:56:23;4.30;;;0.80;;
61338;SDS011;47213;52.362;4.606;2023-05-16T12:01:23;4.30;;;0.80;;
61338;SDS011;47213;52.362;4.606;2023-05-16T12:06:23;7.00;;;1.10;;
61338;SDS011;47213;52.362;4.606;2023-05-16T12:11:23;7.00;;;1.10;;
61338;SDS011;47213;52.362;4.606;2023-05-16T12:16:23;5.40;;;1.20;;
61338;SDS011;47213;52.362;4.606;2023-05-16T12:21:23;5.40;;;1.20;;
61338;SDS011;47213;52.362;4.606;2023-05-16T12:26:27;7.70;;;1.20;;
61338;SDS011;47213;52.362;4.606;2023-05-16T12:31:23;7.70;;;1.20;;
61338;SDS011;47213;52.362;4.606;2023-05-16T12:36:24;5.90;;;1.20;;
61338;SDS011;47213;52.362;4.606;2023-05-16T12:41:23;5.90;;;1.20;;
61338;SDS011;47213;52.362;4.606;2023-05-16T12:46:24;6.90;;;1.20;;
61338;SDS011;47213;52.362;4.606;2023-05-16T12:51:23;6.90;;;1.20;;
61338;SDS011;47213;52.362;4.606;2023-05-16T12:56:23;9.00;;;1.30;;
61338;SDS011;47213;52.362;4.606;2023-05-16T13:01:23;9.00;;;1.30;;
61338;SDS011;47213;52.362;4.606;2023-05-16T13:11:23;7.70;;;1.30;;
61338;SDS011;47213;52.362;4.606;2023-05-16T13:21:23;6.60;;;1.00;;
61338;SDS011;47213;52.362;4.606;2023-05-16T13:26:23;6.20;;;1.30;;
61338;SDS011;47213;52.362;4.606;2023-05-16T13:31:23;6.20;;;1.30;;
61338;SDS011;47213;52.362;4.606;2023-05-16T13:41:23;6.00;;;1.40;;
61338;SDS011;47213;52.362;4.606;2023-05-16T13:46:23;8.20;;;1.70;;
61338;SDS011;47213;52.362;4.606;2023-05-16T13:51:23;8.20;;;1.70;;
61338;SDS011;47213;52.362;4.606;2023-05-16T13:56:23;6.20;;;1.30;;
61338;SDS011;47213;52.362;4.606;2023-05-16T14:01:23;6.20;;;1.30;;
61338;SDS011;47213;52.362;4.606;2023-05-16T14:06:23;5.60;;;1.40;;
61338;SDS011;47213;52.362;4.606;2023-05-16T14:11:23;5.60;;;1.40;;
61338;SDS011;47213;52.362;4.606;2023-05-16T14:16:24;7.10;;;1.90;;
61338;SDS011;47213;52.362;4.606;2023-05-16T14:21:23;7.10;;;1.90;;
61338;SDS011;47213;52.362;4.606;2023-05-16T14:26:23;8.20;;;1.70;;
61338;SDS011;47213;52.362;4.606;2023-05-16T14:31:23;8.20;;;1.70;;
61338;SDS011;47213;52.362;4.606;2023-05-16T14:41:23;7.50;;;1.90;;
61338;SDS011;47213;52.362;4.606;2023-05-16T14:46:23;8.60;;;1.90;;
61338;SDS011;47213;52.362;4.606;2023-05-16T14:51:23;8.60;;;1.90;;
61338;SDS011;47213;52.362;4.606;2023-05-16T14:56:23;7.50;;;2.30;;
61338;SDS011;47213;52.362;4.606;2023-05-16T15:01:23;7.50;;;2.30;;
61338;SDS011;47213;52.362;4.606;2023-05-16T15:06:23;8.20;;;2.90;;
61338;SDS011;47213;52.362;4.606;2023-05-16T15:11:23;8.20;;;2.90;;
61338;SDS011;47213;52.362;4.606;2023-05-16T15:21:23;12.30;;;4.40;;
61338;SDS011;47213;52.362;4.606;2023-05-16T15:26:23;9.20;;;3.10;;
61338;SDS011;47213;52.362;4.606;2023-05-16T15:31:23;9.20;;;3.10;;
61338;SDS011;47213;52.362;4.606;2023-05-16T15:36:23;9.50;;;2.30;;
61338;SDS011;47213;52.362;4.606;2023-05-16T15:41:23;9.50;;;2.30;;
61338;SDS011;47213;52.362;4.606;2023-05-16T15:46:23;8.80;;;2.10;;
61338;SDS011;47213;52.362;4.606;2023-05-16T15:51:23;8.80;;;2.10;;
61338;SDS011;47213;52.362;4.606;2023-05-16T16:01:23;10.50;;;2.20;;
61338;SDS011;47213;52.362;4.606;2023-05-16T16:06:23;8.90;;;2.00;;
61338;SDS011;47213;52.362;4.606;2023-05-16T16:11:25;8.90;;;2.00;;
61338;SDS011;47213;52.362;4.606;2023-05-16T16:16:23;8.50;;;1.70;;
61338;SDS011;47213;52.362;4.606;2023-05-16T16:21:23;8.50;;;1.70;;
61338;SDS011;47213;52.362;4.606;2023-05-16T16:26:23;9.40;;;2.00;;
61338;SDS011;47213;52.362;4.606;2023-05-16T16:31:24;9.40;;;2.00;;
61338;SDS011;47213;52.362;4.606;2023-05-16T16:36:23;8.50;;;1.80;;
61338;SDS011;47213;52.362;4.606;2023-05-16T16:51:23;9.60;;;2.00;;
61338;SDS011;47213;52.362;4.606;2023-05-16T16:56:24;12.40;;;2.30;;
61338;SDS011;47213;52.362;4.606;2023-05-16T17:06:24;10.30;;;2.20;;
61338;SDS011;47213;52.362;4.606;2023-05-16T17:11:24;10.30;;;2.20;;
61338;SDS011;47213;52.362;4.606;2023-05-16T17:16:25;8.50;;;2.10;;
61338;SDS011;47213;52.362;4.606;2023-05-16T17:21:24;8.50;;;2.10;;
61338;SDS011;47213;52.362;4.606;2023-05-16T17:26:24;10.70;;;2.30;;
61338;SDS011;47213;52.362;4.606;2023-05-16T17:31:24;10.70;;;2.30;;
61338;SDS011;47213;52.362;4.606;2023-05-16T17:36:24;11.40;;;2.10;;
61338;SDS011;47213;52.362;4.606;2023-05-16T17:41:24;11.40;;;2.10;;
61338;SDS011;47213;52.362;4.606;2023-05-16T17:46:24;8.10;;;2.00;;
61338;SDS011;47213;52.362;4.606;2023-05-16T17:51:24;8.10;;;2.00;;
61338;SDS011;47213;52.362;4.606;2023-05-16T17:56:24;10.50;;;2.20;;
61338;SDS011;47213;52.362;4.606;2023-05-16T18:01:24;10.50;;;2.20;;
61338;SDS011;47213;52.362;4.606;2023-05-16T18:06:24;10.40;;;2.20;;
61338;SDS011;47213;52.362;4.606;2023-05-16T18:11:24;10.40;;;2.20;;
61338;SDS011;47213;52.362;4.606;2023-05-16T18:16:24;12.50;;;2.80;;
61338;SDS011;47213;52.362;4.606;2023-05-16T18:36:24;12.70;;;2.80;;
61338;SDS011;47213;52.362;4.606;2023-05-16T18:41:24;12.70;;;2.80;;
61338;SDS011;47213;52.362;4.606;2023-05-16T18:46:24;12.40;;;2.60;;
61338;SDS011;47213;52.362;4.606;2023-05-16T18:56:24;13.00;;;3.00;;
61338;SDS011;47213;52.362;4.606;2023-05-16T19:01:24;13.00;;;3.00;;
61338;SDS011;47213;52.362;4.606;2023-05-16T19:16:24;12.60;;;3.00;;
61338;SDS011;47213;52.362;4.606;2023-05-16T19:21:24;12.60;;;3.00;;
61338;SDS011;47213;52.362;4.606;2023-05-16T19:26:24;12.30;;;3.00;;
61338;SDS011;47213;52.362;4.606;2023-05-16T19:31:24;12.30;;;3.00;;
61338;SDS011;47213;52.362;4.606;2023-05-16T19:46:24;13.20;;;3.20;;
61338;SDS011;47213;52.362;4.606;2023-05-16T19:51:24;13.20;;;3.20;;
61338;SDS011;47213;52.362;4.606;2023-05-16T19:56:24;15.30;;;3.30;;
61338;SDS011;47213;52.362;4.606;2023-05-16T20:01:24;15.30;;;3.30;;
61338;SDS011;47213;52.362;4.606;2023-05-16T20:06:24;14.70;;;3.10;;
61338;SDS011;47213;52.362;4.606;2023-05-16T20:16:25;14.20;;;3.60;;
61338;SDS011;47213;52.362;4.606;2023-05-16T20:21:24;14.20;;;3.60;;
61338;SDS011;47213;52.362;4.606;2023-05-16T20:26:24;15.40;;;3.80;;
61338;SDS011;47213;52.362;4.606;2023-05-16T20:46:24;14.10;;;4.00;;
61338;SDS011;47213;52.362;4.606;2023-05-16T20:56:24;14.50;;;3.80;;
61338;SDS011;47213;52.362;4.606;2023-05-16T21:11:24;16.80;;;4.10;;
61338;SDS011;47213;52.362;4.606;2023-05-16T21:16:24;16.60;;;4.20;;
61338;SDS011;47213;52.362;4.606;2023-05-16T21:21:24;16.60;;;4.20;;
61338;SDS011;47213;52.362;4.606;2023-05-16T21:26:24;19.50;;;4.20;;
61338;SDS011;47213;52.362;4.606;2023-05-16T22:01:24;18.10;;;4.50;;
61338;SDS011;47213;52.362;4.606;2023-05-16T22:11:24;15.20;;;4.10;;
61338;SDS011;47213;52.362;4.606;2023-05-16T22:36:24;16.10;;;4.70;;
61338;SDS011;47213;52.362;4.606;2023-05-16T22:56:24;15.90;;;4.90;;
61338;SDS011;47213;52.362;4.606;2023-05-16T23:06:24;17.10;;;4.50;;
61338;SDS011;47213;52.362;4.606;2023-05-16T23:11:25;17.10;;;4.50;;
61338;SDS011;47213;52.362;4.606;2023-05-16T23:16:25;20.70;;;5.40;;
61338;SDS011;47213;52.362;4.606;2023-05-16T23:21:24;20.70;;;5.40;;
61338;SDS011;47213;52.362;4.606;2023-05-16T23:26:25;16.90;;;5.10;;
61338;SDS011;47213;52.362;4.606;2023-05-16T23:31:25;16.90;;;5.10;;
61338;SDS011;47213;52.362;4.606;2023-05-16T23:41:25;18.70;;;4.80;;
61338;SDS011;47213;52.362;4.606;2023-05-16T23:46:25;19.20;;;5.10;;
61338;SDS011;47213;52.362;4.606;2023-05-16T23:51:25;19.20;;;5.10;;
